Kezdőlap
METAR-TAF:

METAR-TAF

Repülőterek :

Tsushima, Japán

földrajzi szélesség: 34-17N, földrajzi hosszúság: 129-20E, magasság: 63 m

Jelenlegi meteorológiai megfigyelések

A jelentés 27 perccel ezelõtt készült, 23:00 UTC
Különbözõ irányokból fújó szél 1 kt
Hőmérséklet 21°C
Páratartalom 64%
Légköri nyomás 1014 hPa
Látótávolság 10 km, vagy több
felhőtlen 1500 m magasságban, és nincs gomolyfelhõ

METAR: RJDT 192300Z VRB01KT CAVOK 21/14 Q1014

Idő: 08:27 (23:27 UTC)


TAF: hiányzik

Meteorológiai megfigyelések és előrejelzések több, mint 4000 repülőtéren (METAR és TAF jelentéseket).

A térképen piros és sárga pontok jelzik az elérhető meteorológiai állomásokat.

Mozgassa az egeret a pont fölött, hogy megjelenjen az állomás neve.

Azután kattintson az időjárási megfigyelések és előrejelzések megtekintéséhez.

A térkép megváltoztatása: kattintson a fekete keresztel jelölt zöld gombra ráközelítéshez, a vonallal jelölt zöld gombra távolításhoz, vagy a zöld nyilakra a szomszédos térképek eléréséhez.


METAR-TAF: